createdAt,value
2018-11-10T00:00:23.904Z,76995.95
2018-11-10T00:02:51.111Z,76988.95
2018-11-10T00:05:19.647Z,76990.95
2018-11-10T00:07:46.635Z,76994.95
2018-11-10T00:10:14.852Z,76992.95
2018-11-10T00:12:42.600Z,76998.96
2018-11-10T00:15:11.656Z,76994.95
2018-11-10T00:17:39.410Z,76990.95
2018-11-10T00:20:07.272Z,76993.95
2018-11-10T00:22:35.191Z,76986.95
2018-11-10T00:25:02.071Z,76984.95
2018-11-10T00:27:29.784Z,76993.95
2018-11-10T00:29:57.571Z,76991.95
2018-11-10T00:32:25.402Z,76992.95
2018-11-10T00:34:53.247Z,76992.95
2018-11-10T00:37:21.065Z,76980.94
2018-11-10T00:39:48.817Z,76980.94
2018-11-10T00:42:15.667Z,76982.95
2018-11-10T00:44:43.985Z,76983.95
2018-11-10T00:47:11.811Z,76975.94
2018-11-10T00:49:39.685Z,76976.94
2018-11-10T00:52:07.535Z,76978.94
2018-11-10T00:54:35.360Z,76980.94
2018-11-10T00:57:03.140Z,76982.95
2018-11-10T00:59:30.865Z,76968.94
2018-11-10T01:01:58.643Z,76972.94
2018-11-10T01:04:25.525Z,76971.94
2018-11-10T01:06:53.183Z,76971.94
2018-11-10T01:09:21.065Z,76969.94
2018-11-10T01:11:47.918Z,76966.93
2018-11-10T01:14:16.319Z,76966.93
2018-11-10T01:16:44.098Z,76960.92
2018-11-10T01:19:11.646Z,76956.92
2018-11-10T01:21:39.496Z,76954.92
2018-11-10T01:24:07.327Z,76952.92
2018-11-10T01:26:35.119Z,76944.91
2018-11-10T01:29:01.969Z,76946.91
2018-11-10T01:31:28.839Z,76945.91
2018-11-10T01:33:56.711Z,76947.91
2018-11-10T01:36:24.534Z,76948.92
2018-11-10T01:38:52.327Z,76944.91
2018-11-10T01:41:20.024Z,76946.91
2018-11-10T01:43:47.771Z,76951.92
2018-11-10T01:46:15.123Z,76954.92
2018-11-10T01:48:43.635Z,76948.92
2018-11-10T01:51:10.485Z,76942.91
2018-11-10T01:53:38.291Z,76943.91
2018-11-10T01:56:06.156Z,76943.91
2018-11-10T01:58:33.976Z,76938.91
2018-11-10T02:01:01.691Z,76940.91
2018-11-10T02:03:29.436Z,76936.91
2018-11-10T02:05:57.222Z,76935.91
2018-11-10T02:08:25.044Z,76934.91
2018-11-10T02:10:51.970Z,76935.91
2018-11-10T02:13:19.749Z,76938.91
2018-11-10T02:15:47.477Z,76939.91
2018-11-10T02:18:14.761Z,76931.91
2018-11-10T02:20:42.419Z,76928.91
2018-11-10T02:23:09.265Z,76930.91
2018-11-10T02:25:36.130Z,76932.91
2018-11-10T02:28:02.939Z,76934.91
2018-11-10T02:30:29.814Z,76933.91
2018-11-10T02:32:56.675Z,76940.91
2018-11-10T02:35:23.546Z,76946.91
2018-11-10T02:37:50.422Z,76939.91
2018-11-10T02:40:18.088Z,76937.91
2018-11-10T02:42:45.048Z,76933.91
2018-11-10T02:45:13.739Z,76934.91
2018-11-10T02:47:40.862Z,76935.91
2018-11-10T02:50:07.707Z,76937.91
2018-11-10T02:52:34.643Z,76937.91
2018-11-10T02:55:01.910Z,76933.91
2018-11-10T02:57:28.827Z,76929.91
2018-11-10T02:59:56.452Z,76931.91
2018-11-10T03:02:24.118Z,76926.90
2018-11-10T03:04:51.951Z,76927.90
2018-11-10T03:07:19.766Z,76926.90
2018-11-10T03:09:46.603Z,76926.90
2018-11-10T03:12:14.477Z,76930.91
2018-11-10T03:14:41.365Z,76929.91
2018-11-10T03:17:09.203Z,76926.90
2018-11-10T03:19:37.017Z,76927.90
2018-11-10T03:22:04.835Z,76925.90
2018-11-10T03:24:32.516Z,76926.90
2018-11-10T03:27:00.250Z,76922.89
2018-11-10T03:29:28.153Z,76922.89
2018-11-10T03:31:55.954Z,76916.89
2018-11-10T03:34:23.792Z,76919.89
2018-11-10T03:36:51.585Z,76925.90
2018-11-10T03:39:19.418Z,76924.90
2018-11-10T03:41:47.252Z,76930.91
2018-11-10T03:44:15.109Z,76925.90
2018-11-10T03:46:42.849Z,76925.90
2018-11-10T03:49:09.715Z,76925.90
2018-11-10T03:51:37.539Z,76919.89
2018-11-10T03:54:05.516Z,76918.89
2018-11-10T03:56:33.241Z,76918.89
2018-11-10T03:59:00.934Z,76912.89
2018-11-10T04:01:28.708Z,76914.89
2018-11-10T04:03:56.507Z,76921.89
2018-11-10T04:06:23.482Z,76918.89
2018-11-10T04:08:51.169Z,76912.89
2018-11-10T04:11:18.063Z,76914.89
2018-11-10T04:13:44.904Z,76907.88
2018-11-10T04:16:12.722Z,76907.88
2018-11-10T04:18:40.476Z,76908.89
2018-11-10T04:21:08.349Z,76905.88
2018-11-10T04:23:35.143Z,76903.88
2018-11-10T04:26:02.040Z,76903.88
2018-11-10T04:28:29.886Z,76909.89
2018-11-10T04:30:57.704Z,76913.89
2018-11-10T04:33:25.362Z,76909.89
2018-11-10T04:35:53.276Z,76908.89
2018-11-10T04:38:21.017Z,76911.89
2018-11-10T04:40:48.810Z,76910.89
2018-11-10T04:43:16.484Z,76910.89
2018-11-10T04:45:45.225Z,76908.89
2018-11-10T04:48:12.094Z,76908.89
2018-11-10T04:50:39.777Z,76897.88
2018-11-10T04:53:07.640Z,76900.88
2018-11-10T04:55:35.476Z,76895.88
2018-11-10T04:58:02.304Z,76888.87
2018-11-10T05:00:30.127Z,76893.88
2018-11-10T05:02:57.974Z,76895.88
2018-11-10T05:05:24.878Z,76892.88
2018-11-10T05:07:51.723Z,76892.88
2018-11-10T05:10:18.613Z,76892.88
2018-11-10T05:12:45.483Z,76886.86
2018-11-10T05:15:14.103Z,76890.87
2018-11-10T05:17:41.107Z,76888.87
2018-11-10T05:20:08.009Z,76886.86
2018-11-10T05:22:34.857Z,76883.86
2018-11-10T05:25:02.241Z,76887.87
2018-11-10T05:27:29.105Z,76883.86
2018-11-10T05:29:56.959Z,76880.86
2018-11-10T05:32:23.817Z,76886.86
2018-11-10T05:34:50.689Z,76889.87
2018-11-10T05:37:17.532Z,76894.88
2018-11-10T05:39:45.215Z,76895.88
2018-11-10T05:42:13.886Z,76902.88
2018-11-10T05:44:41.561Z,76903.88
2018-11-10T05:47:09.340Z,76900.88
2018-11-10T05:49:36.996Z,76898.88
2018-11-10T05:52:04.249Z,76906.88
2018-11-10T05:54:31.895Z,76914.89
2018-11-10T05:56:59.811Z,76911.89
2018-11-10T05:59:27.618Z,76902.88
2018-11-10T06:01:55.464Z,76897.88
2018-11-10T06:04:23.321Z,76893.88
2018-11-10T06:06:51.164Z,76891.87
2018-11-10T06:09:19.027Z,76888.87
2018-11-10T06:11:46.393Z,76894.88
2018-11-10T06:14:14.882Z,76890.87
2018-11-10T06:16:41.746Z,76887.87
2018-11-10T06:19:09.607Z,76888.87
2018-11-10T06:21:37.408Z,76888.87
2018-11-10T06:24:05.193Z,76894.88
2018-11-10T06:26:32.924Z,76893.88
2018-11-10T06:29:00.620Z,76893.88
2018-11-10T06:31:28.422Z,76892.88
2018-11-10T06:33:56.550Z,76891.87
2018-11-10T06:36:24.284Z,76886.86
2018-11-10T06:38:51.127Z,76892.88
2018-11-10T06:41:18.052Z,76890.87
2018-11-10T06:43:44.923Z,76889.87
2018-11-10T06:46:12.583Z,76886.86
2018-11-10T06:48:39.624Z,76893.88
2018-11-10T06:51:06.543Z,76894.88
2018-11-10T06:53:33.566Z,76891.87
2018-11-10T06:56:01.259Z,76892.88
2018-11-10T06:58:28.112Z,76886.86
2018-11-10T07:00:55.104Z,76886.86
2018-11-10T07:03:21.991Z,76893.88
2018-11-10T07:05:48.889Z,76895.88
2018-11-10T07:08:15.883Z,76897.88
2018-11-10T07:10:42.705Z,76894.88
2018-11-10T07:13:09.498Z,76892.88
2018-11-10T07:15:36.318Z,76886.86
2018-11-10T07:18:04.142Z,76883.86
2018-11-10T07:20:31.829Z,76874.86
2018-11-10T07:23:00.138Z,76878.86
2018-11-10T07:25:27.956Z,76880.86
2018-11-10T07:27:55.918Z,76889.87
2018-11-10T07:30:23.762Z,76884.86
2018-11-10T07:32:51.433Z,76889.87
2018-11-10T07:35:19.785Z,76884.86
2018-11-10T07:37:47.626Z,76883.86
2018-11-10T07:40:15.432Z,76885.86
2018-11-10T07:42:44.025Z,76888.87
2018-11-10T07:45:15.015Z,76893.88
2018-11-10T07:47:45.491Z,76893.88
2018-11-10T07:50:14.371Z,76894.88
2018-11-10T07:52:42.059Z,76898.88
2018-11-10T07:55:11.001Z,76891.87
2018-11-10T07:57:38.915Z,76890.87
2018-11-10T08:00:07.944Z,76890.87
2018-11-10T08:02:35.605Z,76890.87
2018-11-10T08:05:10.845Z,76888.87
2018-11-10T08:07:37.914Z,76900.88
2018-11-10T08:10:05.115Z,76901.88
2018-11-10T08:12:32.005Z,76892.88
2018-11-10T08:14:58.978Z,76891.87
2018-11-10T08:17:26.619Z,76888.87
2018-11-10T08:19:54.249Z,76881.86
2018-11-10T08:22:21.969Z,76882.86
2018-11-10T08:24:48.755Z,76879.86
2018-11-10T08:27:16.529Z,76882.86
2018-11-10T08:29:43.525Z,76887.87
2018-11-10T08:32:11.346Z,76885.86
2018-11-10T08:34:38.239Z,76877.86
2018-11-10T08:37:06.084Z,76887.87
2018-11-10T08:39:33.961Z,76884.86
2018-11-10T08:42:01.781Z,76877.86
2018-11-10T08:44:28.662Z,76874.86
2018-11-10T08:46:56.703Z,76869.85
2018-11-10T08:49:23.595Z,76868.85
2018-11-10T08:51:50.462Z,76866.84
2018-11-10T08:54:17.374Z,76865.84
2018-11-10T08:56:44.926Z,76863.84
2018-11-10T08:59:11.873Z,76859.84
2018-11-10T09:01:38.788Z,76858.84
2018-11-10T09:04:05.675Z,76858.84
2018-11-10T09:06:32.572Z,76864.84
2018-11-10T09:09:00.269Z,76864.84
2018-11-10T09:11:27.230Z,76867.85
2018-11-10T09:13:54.129Z,76858.84
2018-11-10T09:16:20.970Z,76864.84
2018-11-10T09:18:49.347Z,76867.85
2018-11-10T09:21:16.270Z,76872.86
2018-11-10T09:23:44.019Z,76870.85
2018-11-10T09:26:10.871Z,76869.85
2018-11-10T09:28:37.773Z,76866.84
2018-11-10T09:31:04.955Z,76868.85
2018-11-10T09:33:32.702Z,76866.84
2018-11-10T09:36:00.556Z,76863.84
2018-11-10T09:38:27.464Z,76864.84
2018-11-10T09:40:54.571Z,76856.84
2018-11-10T09:43:21.403Z,76854.84
2018-11-10T09:45:48.285Z,76849.84
2018-11-10T09:48:15.182Z,76847.84
2018-11-10T09:50:42.005Z,76850.84
2018-11-10T09:53:08.869Z,76845.83
2018-11-10T09:55:36.704Z,76846.83
2018-11-10T09:58:03.540Z,76855.84
2018-11-10T10:00:30.459Z,76855.84
2018-11-10T10:02:57.323Z,76858.84
2018-11-10T10:05:24.532Z,76856.84
2018-11-10T10:07:51.417Z,76854.84
2018-11-10T10:10:18.694Z,76852.84
2018-11-10T10:12:45.926Z,76848.84
2018-11-10T10:15:14.256Z,76850.84
2018-11-10T10:17:42.204Z,76867.85
2018-11-10T10:20:10.299Z,76859.84
2018-11-10T10:22:37.222Z,76844.83
2018-11-10T10:25:05.422Z,76835.83
2018-11-10T10:27:33.397Z,76819.81
2018-11-10T10:30:00.233Z,76816.81
2018-11-10T10:32:27.098Z,76810.80
2018-11-10T10:34:54.002Z,76807.80
2018-11-10T10:37:20.843Z,76810.80
2018-11-10T10:39:47.711Z,76810.80
2018-11-10T10:42:15.378Z,76814.81
2018-11-10T10:44:42.244Z,76810.80
2018-11-10T10:47:09.126Z,76808.80
2018-11-10T10:49:36.019Z,76805.80
2018-11-10T10:52:02.857Z,76799.80
2018-11-10T10:54:29.770Z,76796.80
2018-11-10T10:56:56.686Z,76798.80
2018-11-10T10:59:23.612Z,76788.78
2018-11-10T11:01:56.059Z,76788.78
2018-11-10T11:04:28.516Z,76784.78
2018-11-10T11:06:55.354Z,76784.78
2018-11-10T11:09:22.275Z,76779.78
2018-11-10T11:11:50.008Z,76779.78
2018-11-10T11:14:16.920Z,76782.78
2018-11-10T11:16:44.674Z,76778.78
2018-11-10T11:19:12.350Z,76780.78
2018-11-10T11:21:39.298Z,76770.77
2018-11-10T11:24:06.340Z,76770.77
2018-11-10T11:26:33.262Z,76768.77
2018-11-10T11:29:00.103Z,76771.77
2018-11-10T11:31:26.984Z,76773.77
2018-11-10T11:33:53.808Z,76763.77
2018-11-10T11:36:21.403Z,76766.77
2018-11-10T11:38:48.250Z,76774.78
2018-11-10T11:41:15.472Z,76773.77
2018-11-10T11:43:43.398Z,76785.78
2018-11-10T11:46:10.192Z,76784.78
2018-11-10T11:48:37.045Z,76784.78
2018-11-10T11:51:04.715Z,76781.78
2018-11-10T11:53:31.554Z,76784.78
2018-11-10T11:55:58.350Z,76780.78
2018-11-10T11:58:25.216Z,76774.78
2018-11-10T12:00:52.972Z,76775.78
2018-11-10T12:03:19.799Z,76776.78
2018-11-10T12:05:46.628Z,76777.78
2018-11-10T12:08:14.354Z,76770.77
2018-11-10T12:10:41.206Z,76764.77
2018-11-10T12:13:08.580Z,76762.77
2018-11-10T12:15:35.427Z,76763.77
2018-11-10T12:18:02.296Z,76760.77
2018-11-10T12:20:29.994Z,76757.77
2018-11-10T12:22:56.843Z,76759.77
2018-11-10T12:25:23.672Z,76761.77
2018-11-10T12:27:50.508Z,76760.77
2018-11-10T12:30:17.326Z,76758.77
2018-11-10T12:32:45.072Z,76749.76
2018-11-10T12:35:13.612Z,76746.75
2018-11-10T12:37:41.421Z,76741.75
2018-11-10T12:40:09.171Z,76739.75
2018-11-10T12:42:36.190Z,76737.75
2018-11-10T12:45:04.384Z,76745.75
2018-11-10T12:47:32.057Z,76739.75
2018-11-10T12:49:58.925Z,76735.75
2018-11-10T12:52:26.822Z,76742.75
2018-11-10T12:54:53.706Z,76739.75
2018-11-10T12:57:20.573Z,76735.75
2018-11-10T12:59:47.399Z,76740.75
2018-11-10T13:02:14.958Z,76739.75
2018-11-10T13:04:42.837Z,76744.75
2018-11-10T13:07:09.973Z,76738.75
2018-11-10T13:09:36.814Z,76734.75
2018-11-10T13:12:03.787Z,76738.75
2018-11-10T13:14:31.726Z,76736.75
2018-11-10T13:16:58.591Z,76742.75
2018-11-10T13:19:26.196Z,76739.75
2018-11-10T13:21:53.114Z,76731.74
2018-11-10T13:24:20.818Z,76736.75
2018-11-10T13:26:47.681Z,76733.75
2018-11-10T13:29:14.781Z,76733.75
2018-11-10T13:31:41.780Z,76726.73
2018-11-10T13:34:08.538Z,76728.74
2018-11-10T13:36:36.239Z,76728.74
2018-11-10T13:39:04.995Z,76726.73
2018-11-10T13:41:32.670Z,76724.73
2018-11-10T13:43:59.569Z,76727.74
2018-11-10T13:46:26.377Z,76727.74
2018-11-10T13:48:53.217Z,76724.73
2018-11-10T13:51:20.193Z,76719.73
2018-11-10T13:53:47.003Z,76723.73
2018-11-10T13:56:14.532Z,76720.73
2018-11-10T13:58:41.361Z,76719.73
2018-11-10T14:01:08.250Z,76726.73
2018-11-10T14:03:35.170Z,76720.73
2018-11-10T14:06:03.011Z,76718.73
2018-11-10T14:08:29.868Z,76720.73
2018-11-10T14:10:56.721Z,76712.73
2018-11-10T14:13:23.795Z,76708.73
2018-11-10T14:15:50.628Z,76707.73
2018-11-10T14:18:18.536Z,76699.72
2018-11-10T14:20:45.625Z,76699.72
2018-11-10T14:23:13.563Z,76703.72
2018-11-10T14:25:40.460Z,76700.72
2018-11-10T14:28:07.330Z,76703.72
2018-11-10T14:30:36.038Z,76700.72
2018-11-10T14:33:02.880Z,76695.72
2018-11-10T14:35:29.736Z,76694.72
2018-11-10T14:37:56.583Z,76697.72
2018-11-10T14:40:23.421Z,76700.72
2018-11-10T14:42:50.367Z,76702.72
2018-11-10T14:45:18.883Z,76702.72
2018-11-10T14:47:45.777Z,76702.72
2018-11-10T14:50:14.262Z,76698.72
2018-11-10T14:52:41.457Z,76695.72
2018-11-10T14:55:09.770Z,76694.72
2018-11-10T14:57:36.831Z,76695.72
2018-11-10T15:00:03.952Z,76700.72
2018-11-10T15:02:31.848Z,76711.73
2018-11-10T15:04:58.694Z,76726.73
2018-11-10T15:07:25.519Z,76742.75
2018-11-10T15:09:52.364Z,76745.75
2018-11-10T15:12:19.338Z,76730.74
2018-11-10T15:17:44.399Z,76727.74
2018-11-10T15:20:12.489Z,76722.73
2018-11-10T15:22:40.314Z,76722.73
2018-11-10T15:25:09.458Z,76732.75
2018-11-10T15:27:37.263Z,76732.75
2018-11-10T15:30:05.378Z,76729.74
2018-11-10T15:32:32.278Z,76733.75
2018-11-10T15:35:00.077Z,76740.75
2018-11-10T15:37:27.000Z,76737.75
2018-11-10T15:39:54.740Z,76742.75
2018-11-10T15:42:21.602Z,76737.75
2018-11-10T15:44:49.299Z,76739.75
2018-11-10T15:47:17.161Z,76761.77
2018-11-10T15:49:44.985Z,76747.75
2018-11-10T15:52:12.729Z,76747.75
2018-11-10T15:54:40.365Z,76744.75
2018-11-10T15:57:07.242Z,76748.76
2018-11-10T15:59:35.121Z,76752.76
2018-11-10T16:02:01.974Z,76750.76
2018-11-10T16:04:29.852Z,76750.76
2018-11-10T16:06:57.751Z,76752.76
2018-11-10T16:09:25.627Z,76754.77
2018-11-10T16:11:53.761Z,76752.76
2018-11-10T16:14:20.642Z,76755.77
2018-11-10T16:16:48.403Z,76760.77
2018-11-10T16:19:16.213Z,76770.77
2018-11-10T16:21:44.779Z,76762.77
2018-11-10T16:24:12.494Z,76764.77
2018-11-10T16:26:39.350Z,76762.77
2018-11-10T16:29:06.248Z,76764.77
2018-11-10T16:31:33.890Z,76803.80
2018-11-10T16:34:01.849Z,76850.84
2018-11-10T16:36:29.632Z,76865.84
2018-11-10T16:38:57.278Z,76851.84
2018-11-10T16:41:24.144Z,76819.81
2018-11-10T16:43:51.143Z,76829.82
2018-11-10T16:46:18.835Z,76841.83
2018-11-10T16:48:45.688Z,76874.86
2018-11-10T16:51:13.609Z,76888.87
2018-11-10T16:53:41.162Z,76891.87
2018-11-10T16:56:09.188Z,76902.88
2018-11-10T16:58:36.146Z,76890.87
2018-11-10T17:01:03.012Z,76901.88
2018-11-10T17:03:30.682Z,76894.88
2018-11-10T17:05:58.492Z,76905.88
2018-11-10T17:08:26.303Z,76901.88
2018-11-10T17:10:54.242Z,76894.88
2018-11-10T17:13:22.060Z,76878.86
2018-11-10T17:15:51.327Z,76885.86
2018-11-10T17:18:19.897Z,76886.86
2018-11-10T17:21:04.998Z,76898.88
2018-11-10T17:23:32.657Z,76886.86
2018-11-10T17:26:00.490Z,76896.88
2018-11-10T17:28:28.280Z,76909.89
2018-11-10T17:30:55.205Z,76891.87
2018-11-10T17:33:22.030Z,76904.88
2018-11-10T17:35:48.877Z,76895.88
2018-11-10T17:38:15.797Z,76912.89
2018-11-10T17:40:42.619Z,76914.89
2018-11-10T17:43:09.480Z,76912.89
2018-11-10T17:45:36.402Z,76927.90
2018-11-10T17:48:03.397Z,76910.89
2018-11-10T17:50:30.252Z,76911.89
2018-11-10T17:52:57.088Z,76917.89
2018-11-10T17:55:23.945Z,76919.89
2018-11-10T17:57:50.842Z,76929.91
2018-11-10T18:00:17.655Z,76934.91
2018-11-10T18:02:45.261Z,76942.91
2018-11-10T18:05:13.939Z,76925.90
2018-11-10T18:07:40.856Z,76919.89
2018-11-10T18:10:08.641Z,76924.90
2018-11-10T18:12:35.464Z,76875.86
2018-11-10T18:15:03.210Z,76850.84
2018-11-10T18:17:30.096Z,76825.81
2018-11-10T18:19:57.009Z,76822.81
2018-11-10T18:22:24.825Z,76798.80
2018-11-10T18:24:52.074Z,76800.80
2018-11-10T18:27:18.905Z,76794.79
2018-11-10T18:29:45.722Z,76792.79
2018-11-10T18:32:12.629Z,76782.78
2018-11-10T18:34:39.515Z,76788.78
2018-11-10T18:37:06.540Z,76791.79
2018-11-10T18:39:34.383Z,76791.79
2018-11-10T18:42:02.151Z,76795.80
2018-11-10T18:44:29.837Z,76796.80
2018-11-10T18:46:57.638Z,76789.78
2018-11-10T18:49:25.499Z,76791.79
2018-11-10T18:51:52.413Z,76787.78
2018-11-10T18:54:20.119Z,76788.78
2018-11-10T18:56:47.810Z,76792.79
2018-11-10T18:59:20.163Z,76788.78
2018-11-10T19:01:47.964Z,76785.78
2018-11-10T19:04:15.151Z,76792.79
2018-11-10T19:06:44.017Z,76787.78
2018-11-10T19:09:12.728Z,76778.78
2018-11-10T19:11:40.590Z,76775.78
2018-11-10T19:14:08.448Z,76772.77
2018-11-10T19:16:36.310Z,76771.77
2018-11-10T19:19:03.191Z,76775.78
2018-11-10T19:21:30.124Z,76773.77
2018-11-10T19:23:56.975Z,76782.78
2018-11-10T19:26:24.776Z,76788.78
2018-11-10T19:28:52.610Z,76788.78
2018-11-10T19:31:20.355Z,76796.80
2018-11-10T19:33:47.177Z,76797.80
2018-11-10T19:36:14.779Z,76801.80
2018-11-10T19:38:41.789Z,76802.80
2018-11-10T19:41:09.660Z,76803.80
2018-11-10T19:43:36.475Z,76806.80
2018-11-10T19:46:03.438Z,76810.80
2018-11-10T19:48:30.263Z,76818.81
2018-11-10T19:50:57.215Z,76814.81
2018-11-10T19:53:24.805Z,76807.80
2018-11-10T19:55:51.655Z,76807.80
2018-11-10T19:58:19.381Z,76804.80
2018-11-10T20:00:46.216Z,76808.80
2018-11-10T20:03:14.925Z,76811.80
2018-11-10T20:05:41.758Z,76810.80
2018-11-10T20:08:08.592Z,76810.80
2018-11-10T20:10:35.417Z,76799.80
2018-11-10T20:13:03.096Z,76794.79
2018-11-10T20:15:29.984Z,76790.79
2018-11-10T20:17:56.942Z,76792.79
2018-11-10T20:20:24.731Z,76790.79
2018-11-10T20:22:51.568Z,76794.79
2018-11-10T20:25:19.038Z,76798.80
2018-11-10T20:27:45.828Z,76796.80
2018-11-10T20:30:14.446Z,76794.79
2018-11-10T20:32:41.462Z,76788.78
2018-11-10T20:35:09.844Z,76782.78
2018-11-10T20:37:36.703Z,76783.78
2018-11-10T20:40:05.373Z,76779.78
2018-11-10T20:42:32.209Z,76781.78
2018-11-10T20:44:59.954Z,76787.78
2018-11-10T20:47:26.766Z,76790.79
2018-11-10T20:49:54.502Z,76794.79
2018-11-10T20:52:22.316Z,76793.79
2018-11-10T20:54:50.014Z,76788.78
2018-11-10T20:57:17.766Z,76786.78
2018-11-10T20:59:46.084Z,76783.78
2018-11-10T21:02:14.802Z,76798.80
2018-11-10T21:04:42.465Z,76794.79
2018-11-10T21:07:10.317Z,76791.79
2018-11-10T21:09:37.155Z,76835.83
2018-11-10T21:12:04.860Z,76916.89
2018-11-10T21:14:31.746Z,76954.92
2018-11-10T21:16:59.573Z,76960.92
2018-11-10T21:19:26.419Z,76966.93
2018-11-10T21:21:54.299Z,76968.94
2018-11-10T21:24:21.137Z,76969.94
2018-11-10T21:26:48.065Z,76979.94
2018-11-10T21:29:14.932Z,76994.95
2018-11-10T21:31:42.704Z,76993.95
2018-11-10T21:34:10.549Z,76996.95
2018-11-10T21:36:38.397Z,76998.96
2018-11-10T21:39:07.196Z,76994.95
2018-11-10T21:41:34.061Z,77005.97
2018-11-10T21:44:00.934Z,77007.97
2018-11-10T21:46:28.707Z,77012.97
2018-11-10T21:48:56.528Z,77021.98
2018-11-10T21:51:23.364Z,77012.97
2018-11-10T21:53:50.259Z,77014.97
2018-11-10T21:56:18.079Z,77008.97
2018-11-10T21:58:45.953Z,77025.98
2018-11-10T22:01:14.813Z,76997.96
2018-11-10T22:03:41.647Z,77025.98
2018-11-10T22:06:09.354Z,77036.99
2018-11-10T22:08:37.278Z,77042.00
2018-11-10T22:11:05.095Z,77050.00
2018-11-10T22:13:32.762Z,77065.02
2018-11-10T22:15:59.780Z,77069.02
2018-11-10T22:18:27.314Z,77067.02
2018-11-10T22:20:55.175Z,77038.99
2018-11-10T22:23:22.881Z,77029.98
2018-11-10T22:25:49.723Z,77028.98
2018-11-10T22:28:16.566Z,77014.97
2018-11-10T22:30:45.122Z,77021.98
2018-11-10T22:33:14.032Z,77043.00
2018-11-10T22:35:41.823Z,77039.99
2018-11-10T22:38:09.565Z,77011.97
2018-11-10T22:40:36.382Z,77010.97
2018-11-10T22:43:04.132Z,76995.95
2018-11-10T22:45:30.959Z,76986.95
2018-11-10T22:47:57.849Z,77013.97
2018-11-10T22:50:25.099Z,77020.98
2018-11-10T22:52:51.931Z,77018.98
2018-11-10T22:55:18.718Z,77039.99
2018-11-10T22:57:46.470Z,77055.01
2018-11-10T23:00:16.069Z,77062.02
2018-11-10T23:02:45.425Z,77051.00
2018-11-10T23:05:14.260Z,77061.02
2018-11-10T23:07:42.264Z,77062.02
2018-11-10T23:10:09.085Z,77055.01
2018-11-10T23:12:35.916Z,77062.02
2018-11-10T23:15:03.010Z,77060.02
2018-11-10T23:17:29.867Z,77053.00
2018-11-10T23:19:56.700Z,77051.00
2018-11-10T23:22:23.610Z,77063.02
2018-11-10T23:24:50.443Z,77056.01
2018-11-10T23:27:18.289Z,77060.02
2018-11-10T23:29:46.106Z,77066.02
2018-11-10T23:32:14.509Z,77075.02
2018-11-10T23:34:42.355Z,77075.02
2018-11-10T23:37:10.069Z,77078.03
2018-11-10T23:39:37.902Z,77077.02
2018-11-10T23:42:04.747Z,77072.02
2018-11-10T23:44:31.566Z,77065.02
2018-11-10T23:46:58.389Z,77059.01
2018-11-10T23:49:26.001Z,77054.00
2018-11-10T23:51:53.765Z,77046.00
2018-11-10T23:54:21.587Z,77029.98
2018-11-10T23:56:49.326Z,77049.00
2018-11-10T23:59:16.147Z,77087.03
